Time;durP1;ratioP1;P1;durP2;ratioP2;P2;SDS_P1;SDS_P2;PMS_P1;PMS_P2;Temp;Humidity;BMP_temperature;BMP_pressure;BME280_temperature;BME280_humidity;BME280_pressure;Samples;Min_cycle;Max_cycle;Signal;HPM_P1;HPM_P2
2022/07/15 00:02:04;;;;;;;;;8.67;6.00;;;;;25.00;35.82;101621.06;4946463;28;45214;-63
2022/07/15 00:04:29;;;;;;;;;5.67;5.67;;;;;25.12;35.75;101638.16;4945019;28;45170;-63
2022/07/15 00:06:54;;;;;;;;;9.33;6.00;;;;;25.10;35.89;101635.44;4948248;28;46142;-62
2022/07/15 00:09:20;;;;;;;;;10.00;8.00;;;;;25.01;35.86;101643.81;4948758;28;45000;-64
2022/07/15 00:11:45;;;;;;;;;12.00;9.67;;;;;24.96;36.33;101632.06;4947167;28;44963;-63
2022/07/15 00:14:11;;;;;;;;;9.67;7.33;;;;;24.93;36.31;101643.06;4949842;28;45127;-63
2022/07/15 00:16:36;;;;;;;;;9.00;7.67;;;;;24.77;36.47;101629.69;4945688;28;45550;-62
2022/07/15 00:19:02;;;;;;;;;12.33;8.33;;;;;24.44;36.78;101582.91;4935791;28;45053;-62
2022/07/15 00:21:27;;;;;;;;;11.33;8.00;;;;;24.82;36.60;101652.38;4949060;28;45288;-62
2022/07/15 00:23:52;;;;;;;;;7.33;7.00;;;;;24.81;37.14;101652.41;4952639;28;45216;-62
2022/07/15 00:26:18;;;;;;;;;7.67;7.67;;;;;24.78;37.15;101655.19;4949989;28;45154;-63
2022/07/15 00:28:43;;;;;;;;;6.33;6.00;;;;;24.74;36.93;101659.81;4928188;28;45031;-64
2022/07/15 00:31:08;;;;;;;;;11.67;9.67;;;;;24.72;36.82;101658.94;4943617;28;45295;-63
2022/07/15 00:33:33;;;;;;;;;13.33;10.33;;;;;24.65;37.03;101663.63;4940203;28;45256;-62
2022/07/15 00:35:59;;;;;;;;;13.33;12.00;;;;;24.62;37.37;101657.31;4943784;28;45371;-62
2022/07/15 00:38:24;;;;;;;;;21.00;14.50;;;;;24.58;37.33;101659.19;4943033;28;45405;-62
2022/07/15 00:40:50;;;;;;;;;24.75;23.00;;;;;24.54;37.41;101667.44;4944609;28;45367;-63
2022/07/15 00:43:17;;;;;;;;;44.50;37.00;;;;;24.44;37.18;101661.22;4948164;28;45346;-63
2022/07/15 00:45:44;;;;;;;;;31.25;27.50;;;;;24.45;37.54;101673.94;4946031;28;45166;-63
2022/07/15 00:48:09;;;;;;;;;15.00;12.00;;;;;24.38;37.47;101667.66;4948652;28;45011;-63
2022/07/15 00:50:35;;;;;;;;;15.33;13.67;;;;;24.19;37.17;101653.44;4948312;28;44952;-63
2022/07/15 00:53:08;;;;;;;;;12.67;10.00;;;;;24.27;37.70;101670.59;4950614;28;45169;-63
2022/07/15 00:55:44;;;;;;;;;9.00;8.00;;;;;24.10;37.74;101653.56;4945750;28;45615;-63
2022/07/15 00:58:23;;;;;;;;;10.00;10.00;;;;;24.19;37.89;101683.47;4943266;28;45180;-63
2022/07/15 01:00:50;;;;;;;;;11.67;8.67;;;;;24.16;37.99;101679.88;4944452;28;45326;-62
2022/07/15 01:03:19;;;;;;;;;7.67;6.33;;;;;24.10;38.21;101683.59;4928369;28;45211;-62
2022/07/15 01:05:46;;;;;;;;;8.67;6.00;;;;;24.11;37.99;101690.88;4927207;28;45228;-62
2022/07/15 01:08:12;;;;;;;;;11.00;9.00;;;;;24.14;38.35;101699.03;4927487;28;45109;-63
2022/07/15 01:10:39;;;;;;;;;6.33;6.00;;;;;24.13;38.35;101693.56;4925106;28;45578;-62
2022/07/15 01:13:05;;;;;;;;;7.33;3.67;;;;;24.03;38.54;101696.44;4923135;28;45420;-62
2022/07/15 01:15:32;;;;;;;;;10.00;8.00;;;;;23.99;38.55;101686.50;4927153;28;45518;-63
2022/07/15 01:18:01;;;;;;;;;7.67;7.67;;;;;23.99;38.54;101697.41;4926411;28;44913;-63
2022/07/15 01:20:27;;;;;;;;;7.67;7.00;;;;;23.83;38.60;101672.16;4927074;28;45183;-63
2022/07/15 01:22:52;;;;;;;;;13.67;9.00;;;;;23.96;38.38;101702.03;4928067;28;45053;-62
2022/07/15 01:25:18;;;;;;;;;15.33;12.00;;;;;23.83;38.82;101690.38;4922668;28;45362;-62
2022/07/15 01:27:43;;;;;;;;;9.00;8.00;;;;;23.84;38.65;101697.59;4930384;28;45155;-63
2022/07/15 01:30:09;;;;;;;;;8.00;7.00;;;;;23.81;38.59;101700.34;4930085;28;45135;-63
2022/07/15 01:32:34;;;;;;;;;7.00;7.00;;;;;23.62;38.54;101681.50;4923984;28;45055;-63
2022/07/15 01:35:00;;;;;;;;;4.33;4.33;;;;;23.74;38.72;101700.44;4923547;28;45279;-63
2022/07/15 01:37:25;;;;;;;;;7.67;5.00;;;;;23.66;38.67;101707.81;4923222;28;45286;-63
2022/07/15 01:39:51;;;;;;;;;4.00;4.00;;;;;23.58;39.21;101707.03;4928202;28;45205;-62
2022/07/15 01:42:17;;;;;;;;;5.67;5.00;;;;;23.47;38.84;101706.25;4929697;28;45064;-62
2022/07/15 01:44:42;;;;;;;;;6.67;3.67;;;;;23.31;38.84;101683.69;4930038;28;47073;-62
2022/07/15 01:47:07;;;;;;;;;6.00;3.00;;;;;23.36;38.69;101707.28;4929830;28;45065;-62
2022/07/15 01:49:33;;;;;;;;;4.33;4.33;;;;;23.29;38.91;101699.19;4931477;28;45023;-63
2022/07/15 01:52:00;;;;;;;;;5.33;4.00;;;;;23.27;38.80;101709.22;4928375;28;45445;-62
2022/07/15 01:54:28;;;;;;;;;3.67;3.00;;;;;23.28;38.87;101713.72;4929944;28;46377;-63
2022/07/15 01:56:54;;;;;;;;;2.00;2.00;;;;;23.22;38.99;101702.91;4923592;28;44911;-62
2022/07/15 01:59:24;;;;;;;;;3.00;3.00;;;;;23.04;38.72;101677.59;4919573;28;45183;-62
2022/07/15 02:01:51;;;;;;;;;4.33;2.67;;;;;23.12;38.89;101704.81;4944236;28;44965;-62
2022/07/15 02:04:17;;;;;;;;;4.00;3.00;;;;;23.12;39.03;101708.44;4943457;28;45090;-62
2022/07/15 02:06:43;;;;;;;;;4.00;2.67;;;;;22.98;38.94;101662.22;4948740;28;44967;-62
2022/07/15 02:09:09;;;;;;;;;3.00;3.00;;;;;23.08;38.72;101682.16;4951542;28;45124;-62
2022/07/15 02:11:35;;;;;;;;;5.00;3.67;;;;;23.16;38.83;101698.41;4944453;28;44862;-63
2022/07/15 02:14:01;;;;;;;;;4.67;3.00;;;;;22.95;38.51;101662.25;4944907;28;45983;-62
2022/07/15 02:16:30;;;;;;;;;3.33;3.00;;;;;23.01;38.73;101696.69;4945392;28;46153;-62
2022/07/15 02:18:57;;;;;;;;;3.33;3.33;;;;;23.01;38.61;101699.44;4949489;28;45519;-61
2022/07/15 02:21:22;;;;;;;;;4.00;2.67;;;;;23.01;38.42;101685.81;4948593;28;45163;-63
2022/07/15 02:23:48;;;;;;;;;6.00;3.00;;;;;23.02;38.36;101686.72;4949530;28;45335;-62
2022/07/15 02:26:13;;;;;;;;;5.67;3.67;;;;;22.93;38.38;101680.44;4951468;28;45030;-62
2022/07/15 02:28:39;;;;;;;;;4.00;4.00;;;;;22.91;38.28;101695.88;4951059;28;45333;-62
2022/07/15 02:31:05;;;;;;;;;3.00;3.00;;;;;22.73;38.32;101664.28;4953596;28;44972;-63
2022/07/15 02:33:31;;;;;;;;;3.67;2.00;;;;;22.81;38.37;101686.91;4944134;28;45312;-63
2022/07/15 02:35:56;;;;;;;;;5.00;5.00;;;;;22.87;38.33;101701.38;4946126;28;44926;-61
2022/07/15 02:38:22;;;;;;;;;3.00;3.00;;;;;22.86;38.37;101696.88;4947936;28;45034;-62
2022/07/15 02:40:48;;;;;;;;;6.00;6.00;;;;;22.84;38.30;101696.88;4948741;28;45279;-63
2022/07/15 02:43:13;;;;;;;;;6.33;6.33;;;;;22.80;38.32;101698.72;4934258;28;46536;-63
2022/07/15 02:45:39;;;;;;;;;6.00;6.00;;;;;22.77;38.35;101695.13;4949151;28;44955;-62
2022/07/15 02:48:05;;;;;;;;;4.67;4.67;;;;;22.69;38.50;101689.75;4954856;28;45101;-63
2022/07/15 02:50:31;;;;;;;;;7.00;5.00;;;;;22.70;38.33;101696.09;4951392;28;44984;-63
2022/07/15 02:52:57;;;;;;;;;9.33;6.00;;;;;22.40;38.37;101643.69;4954302;28;45580;-62
2022/07/15 02:55:22;;;;;;;;;6.33;5.00;;;;;22.69;38.38;101705.19;4952913;28;45209;-62
2022/07/15 02:57:48;;;;;;;;;4.00;4.00;;;;;22.26;38.52;101632.91;4944425;28;45125;-62
2022/07/15 03:00:17;;;;;;;;;4.00;4.00;;;;;22.67;38.44;101715.19;4952972;28;46011;-62
2022/07/15 03:02:44;;;;;;;;;4.00;4.00;;;;;22.57;38.21;101707.09;4950045;28;45164;-62
2022/07/15 03:05:11;;;;;;;;;3.00;3.00;;;;;22.41;38.29;101687.25;4947365;28;45227;-64
2022/07/15 03:07:37;;;;;;;;;6.00;5.00;;;;;22.52;38.48;101714.41;4944965;28;45236;-61
2022/07/15 03:10:03;;;;;;;;;6.33;4.67;;;;;22.57;38.44;101714.34;4946720;28;45185;-62
2022/07/15 03:12:29;;;;;;;;;4.00;4.00;;;;;22.59;38.17;101704.38;4949977;28;46399;-63
2022/07/15 03:14:54;;;;;;;;;4.33;4.33;;;;;22.57;37.95;101715.28;4945764;28;45594;-62
2022/07/15 03:17:19;;;;;;;;;2.33;2.33;;;;;22.40;38.45;101684.53;4948246;28;45218;-63
2022/07/15 03:19:45;;;;;;;;;5.67;4.33;;;;;22.50;38.39;101735.28;4946204;28;46182;-63
2022/07/15 03:22:10;;;;;;;;;2.00;2.00;;;;;22.42;38.63;101720.81;4949125;28;45043;-62
2022/07/15 03:24:35;;;;;;;;;4.00;4.00;;;;;22.40;38.81;101726.28;4948795;28;45174;-62
2022/07/15 03:27:01;;;;;;;;;4.67;3.33;;;;;22.34;38.89;101717.25;4950073;28;45248;-62
2022/07/15 03:29:28;;;;;;;;;8.00;5.67;;;;;22.42;38.76;101723.53;4950545;28;45113;-63
2022/07/15 03:31:54;;;;;;;;;7.00;6.67;;;;;22.44;38.80;101722.63;4946493;28;45623;-63
2022/07/15 03:34:20;;;;;;;;;7.67;7.00;;;;;22.42;38.77;101713.56;4943636;28;44970;-62
2022/07/15 03:36:45;;;;;;;;;13.33;13.00;;;;;22.43;38.81;101715.34;4943303;28;45206;-63
2022/07/15 03:39:11;;;;;;;;;7.00;7.00;;;;;22.39;38.91;101709.94;4945269;28;45210;-62
2022/07/15 03:41:36;;;;;;;;;8.00;8.00;;;;;22.33;38.91;101704.56;4947194;28;45399;-63
2022/07/15 03:44:02;;;;;;;;;5.00;5.00;;;;;22.34;38.95;101706.34;4944960;28;45040;-63
2022/07/15 03:46:29;;;;;;;;;5.00;5.00;;;;;22.31;38.98;101706.41;4950798;28;45114;-63
2022/07/15 03:48:56;;;;;;;;;5.67;3.33;;;;;22.30;39.07;101710.03;4950062;28;45157;-63
2022/07/15 03:51:21;;;;;;;;;3.67;3.67;;;;;22.30;39.25;101710.03;4952297;28;45334;-62
2022/07/15 03:53:46;;;;;;;;;6.00;6.00;;;;;22.25;39.43;101707.28;4952449;28;45035;-62
2022/07/15 03:56:12;;;;;;;;;6.00;4.67;;;;;22.23;39.63;101711.84;4936266;28;49457;-63
2022/07/15 03:58:37;;;;;;;;;5.00;4.33;;;;;22.16;39.58;101713.72;4947668;28;44906;-63
2022/07/15 04:01:03;;;;;;;;;6.00;3.00;;;;;22.01;39.63;101700.19;4942508;28;45785;-63
2022/07/15 04:03:29;;;;;;;;;7.67;7.67;;;;;22.12;39.82;101720.06;4943379;28;45228;-63
2022/07/15 04:05:54;;;;;;;;;4.00;4.00;;;;;22.15;39.81;101724.59;4944923;28;45181;-63
2022/07/15 04:08:20;;;;;;;;;3.33;3.33;;;;;22.13;39.95;101727.34;4950323;28;45064;-63
2022/07/15 04:10:45;;;;;;;;;6.67;3.67;;;;;21.98;40.14;101713.84;4947768;28;45129;-62
2022/07/15 04:13:10;;;;;;;;;6.00;4.67;;;;;21.99;40.38;101731.94;4941306;28;48015;-63
2022/07/15 04:15:36;;;;;;;;;6.00;6.00;;;;;21.95;40.39;101733.78;4946355;28;45185;-62
2022/07/15 04:18:01;;;;;;;;;4.00;4.00;;;;;21.94;40.52;101737.41;4944916;28;45007;-63
2022/07/15 04:20:27;;;;;;;;;4.33;4.33;;;;;21.90;40.76;101731.06;4946350;28;45513;-63
2022/07/15 04:22:53;;;;;;;;;6.00;6.00;;;;;21.84;40.67;101716.59;4948284;28;45355;-63
2022/07/15 04:25:20;;;;;;;;;4.00;3.00;;;;;21.85;39.97;101726.59;4948521;28;45534;-62
2022/07/15 04:27:48;;;;;;;;;4.00;4.00;;;;;21.78;40.57;101713.91;4932076;28;45265;-62
2022/07/15 04:30:14;;;;;;;;;6.00;4.67;;;;;21.91;40.69;101745.59;4948472;28;45713;-62
2022/07/15 04:32:40;;;;;;;;;7.00;4.33;;;;;21.91;41.00;101745.59;4950183;28;45449;-62
2022/07/15 04:35:06;;;;;;;;;5.67;3.00;;;;;21.80;40.92;101721.16;4942582;28;44968;-62
2022/07/15 04:37:32;;;;;;;;;5.33;3.00;;;;;21.44;40.83;101655.09;4941813;28;44866;-62
2022/07/15 04:39:57;;;;;;;;;4.33;4.33;;;;;21.84;40.77;101712.06;4943925;28;45308;-62
2022/07/15 04:42:26;;;;;;;;;4.00;4.00;;;;;21.90;41.11;101733.81;4943999;28;45077;-62
2022/07/15 04:44:52;;;;;;;;;5.33;4.00;;;;;21.88;40.96;101743.78;4948880;28;45107;-63
2022/07/15 04:47:17;;;;;;;;;5.00;5.00;;;;;21.72;41.16;101731.16;4946488;28;45196;-62
2022/07/15 04:52:30;;;;;;;;;5.67;4.00;;;;;21.77;41.21;101753.81;4947408;28;46516;-62
2022/07/15 04:54:55;;;;;;;;;5.00;4.00;;;;;21.77;41.20;101751.09;4932026;28;45029;-62
2022/07/15 04:57:21;;;;;;;;;10.67;6.00;;;;;21.59;41.18;101711.28;4945822;28;45260;-62
2022/07/15 04:59:46;;;;;;;;;5.00;3.33;;;;;21.74;41.41;101748.38;4940353;28;46305;-62
2022/07/15 05:02:12;;;;;;;;;3.67;3.67;;;;;21.70;41.63;101743.88;4942104;28;45226;-61
2022/07/15 05:04:38;;;;;;;;;5.00;3.33;;;;;21.76;41.53;101760.16;4942154;28;45019;-63
2022/07/15 05:07:04;;;;;;;;;5.67;4.00;;;;;21.66;41.83;101756.59;4946420;28;45838;-62
2022/07/15 05:09:30;;;;;;;;;7.67;5.00;;;;;21.32;41.97;101704.09;4930105;28;46711;-61
2022/07/15 05:11:55;;;;;;;;;7.67;4.33;;;;;21.64;41.81;101762.94;4940324;28;45024;-62
2022/07/15 05:14:21;;;;;;;;;7.67;4.33;;;;;21.65;41.96;101770.19;4944837;28;45114;-63
2022/07/15 05:16:46;;;;;;;;;7.33;5.67;;;;;21.57;41.79;101750.28;4945483;28;45158;-62
2022/07/15 05:19:12;;;;;;;;;7.00;4.00;;;;;21.64;42.26;101769.25;4946556;28;45531;-62
2022/07/15 05:21:37;;;;;;;;;4.33;4.33;;;;;21.62;42.14;101762.94;4943825;28;46261;-63
2022/07/15 05:24:02;;;;;;;;;12.33;9.67;;;;;21.64;42.00;101765.66;4947517;28;45096;-63
2022/07/15 05:26:28;;;;;;;;;15.00;12.67;;;;;21.63;42.32;101774.69;4946531;28;45075;-63
2022/07/15 05:28:53;;;;;;;;;8.33;5.00;;;;;21.62;42.59;101772.91;4949241;28;46820;-64
2022/07/15 05:31:18;;;;;;;;;44.00;34.25;;;;;21.58;42.66;101779.25;4948632;28;45146;-62
2022/07/15 05:33:44;;;;;;;;;7.67;5.33;;;;;21.55;42.89;101777.47;4945085;28;45198;-64
2022/07/15 05:36:14;;;;;;;;;7.67;6.00;;;;;21.40;42.51;101759.34;4944395;28;45568;-61
2022/07/15 05:38:40;;;;;;;;;8.67;6.33;;;;;21.53;43.06;101793.78;4942479;28;45796;-61
2022/07/15 05:41:05;;;;;;;;;6.67;4.67;;;;;21.53;42.85;101792.84;4947001;28;45088;-63
2022/07/15 05:43:31;;;;;;;;;8.67;7.67;;;;;21.56;43.09;101794.69;4949603;28;45399;-62
2022/07/15 05:45:56;;;;;;;;;10.33;7.00;;;;;21.52;43.12;101793.78;4952685;28;45168;-62
2022/07/15 05:48:21;;;;;;;;;7.33;7.33;;;;;21.58;43.27;101795.56;4952958;28;47492;-63
2022/07/15 05:50:47;;;;;;;;;8.00;5.00;;;;;21.64;43.18;101798.28;4953388;28;45028;-63
2022/07/15 05:53:12;;;;;;;;;6.00;4.67;;;;;21.64;43.23;101795.56;4954564;28;45203;-62
2022/07/15 05:55:38;;;;;;;;;7.67;6.00;;;;;21.22;43.63;101735.81;4954834;28;45178;-62
2022/07/15 05:58:08;;;;;;;;;5.33;5.33;;;;;21.71;43.10;101803.72;4947481;28;45627;-63
2022/07/15 06:00:34;;;;;;;;;4.67;4.67;;;;;21.71;42.86;101806.44;4947175;28;45000;-61
2022/07/15 06:02:59;;;;;;;;;5.00;4.00;;;;;21.78;43.16;101820.00;4947410;28;44955;-63
2022/07/15 06:05:25;;;;;;;;;10.33;5.67;;;;;21.70;43.26;101791.00;4950225;28;45243;-62
2022/07/15 06:07:50;;;;;;;;;8.00;5.00;;;;;21.77;43.39;101810.03;4945924;28;45598;-63
2022/07/15 06:10:15;;;;;;;;;8.00;4.67;;;;;21.76;43.45;101808.22;4947671;28;46980;-62
2022/07/15 06:12:41;;;;;;;;;9.33;9.00;;;;;21.78;43.20;101799.16;4949658;28;44978;-61
2022/07/15 06:15:07;;;;;;;;;7.00;6.67;;;;;21.78;43.16;101806.38;4946320;28;44869;-62
2022/07/15 06:17:33;;;;;;;;;8.00;6.67;;;;;21.61;43.69;101771.09;4950416;28;45769;-63
2022/07/15 06:19:59;;;;;;;;;7.00;7.00;;;;;21.70;43.56;101790.13;4950781;28;45217;-63
2022/07/15 06:22:24;;;;;;;;;7.33;6.00;;;;;21.71;43.57;101779.22;4951980;28;45064;-63
2022/07/15 06:24:49;;;;;;;;;6.67;5.33;;;;;21.77;43.34;101772.84;4949053;28;45038;-63
2022/07/15 06:27:15;;;;;;;;;6.00;6.00;;;;;21.86;43.55;101802.75;4953407;28;45195;-63
2022/07/15 06:29:40;;;;;;;;;9.00;6.00;;;;;21.89;43.22;101796.38;4952650;28;46907;-63
2022/07/15 06:32:07;;;;;;;;;37.25;32.50;;;;;21.96;42.78;101799.97;4954018;28;45579;-63
2022/07/15 06:34:32;;;;;;;;;9.33;7.00;;;;;22.01;42.99;101801.78;4948254;28;45156;-64
2022/07/15 06:36:58;;;;;;;;;5.00;3.67;;;;;22.00;42.92;101802.69;4952314;28;45803;-63
2022/07/15 06:39:24;;;;;;;;;10.00;8.00;;;;;21.98;43.03;101803.63;4941038;28;45592;-66
2022/07/15 06:41:49;;;;;;;;;7.00;5.67;;;;;22.02;42.88;101803.59;4929888;28;45997;-62
2022/07/15 06:44:14;;;;;;;;;5.00;5.00;;;;;21.90;43.13;101807.25;4931096;28;45526;-65
2022/07/15 06:46:40;;;;;;;;;7.00;6.00;;;;;21.77;43.34;101797.34;4932970;28;46552;-62
2022/07/15 06:49:05;;;;;;;;;15.33;12.67;;;;;21.87;43.22;101800.94;4939455;28;45283;-61
2022/07/15 06:51:30;;;;;;;;;5.67;5.00;;;;;22.01;42.82;101814.47;4934217;28;45300;-61
2022/07/15 06:53:56;;;;;;;;;7.00;7.00;;;;;22.04;42.81;101803.56;4944077;28;45288;-62
2022/07/15 06:56:21;;;;;;;;;8.00;6.00;;;;;22.09;42.85;101799.94;4934971;28;46771;-62
2022/07/15 06:58:46;;;;;;;;;9.33;6.67;;;;;22.20;42.69;101799.88;4932789;28;45411;-61
2022/07/15 07:01:12;;;;;;;;;7.67;7.67;;;;;22.06;42.69;101752.78;4942402;28;45704;-62
2022/07/15 07:03:38;;;;;;;;;8.33;5.00;;;;;22.44;42.04;101807.03;4931427;28;45403;-61
2022/07/15 07:06:05;;;;;;;;;7.33;4.67;;;;;22.22;41.40;101750.88;4926875;28;46144;-61
2022/07/15 07:08:31;;;;;;;;;4.33;4.33;;;;;22.50;41.11;101784.31;4932558;28;45563;-61
2022/07/15 07:10:56;;;;;;;;;7.00;6.00;;;;;22.68;40.56;101810.50;4930435;28;45548;-62
2022/07/15 07:13:22;;;;;;;;;6.67;5.00;;;;;22.69;40.73;101809.63;4925803;28;45430;-61
2022/07/15 07:15:47;;;;;;;;;7.33;5.67;;;;;22.77;40.75;101810.47;4931858;28;46168;-63
2022/07/15 07:18:13;;;;;;;;;12.67;11.33;;;;;22.82;40.35;101803.16;4928570;28;45585;-61
2022/07/15 07:20:41;;;;;;;;;11.67;10.00;;;;;22.89;39.84;101806.72;4933096;28;45327;-62
2022/07/15 07:23:06;;;;;;;;;3.33;3.33;;;;;22.89;38.89;101781.31;4931613;28;45308;-61
2022/07/15 07:25:32;;;;;;;;;8.00;8.00;;;;;23.08;38.71;101803.88;4934048;28;46041;-62
2022/07/15 07:28:00;;;;;;;;;12.50;5.50;;;;;23.15;38.54;101813.84;4934572;28;45519;-61
2022/07/15 07:30:27;;;;;;;;;3.00;3.00;;;;;23.22;38.12;101793.78;4935029;28;45714;-63
2022/07/15 07:32:52;;;;;;;;;5.00;5.00;;;;;23.41;38.23;101805.38;4935972;28;45432;-63
2022/07/15 07:35:17;;;;;;;;;6.00;5.00;;;;;23.52;37.58;101802.56;4925481;28;45392;-63
2022/07/15 07:37:43;;;;;;;;;4.67;3.00;;;;;23.64;37.42;101810.63;4929033;28;45518;-62
2022/07/15 07:40:08;;;;;;;;;3.33;2.00;;;;;23.74;36.92;101806.88;4929045;28;45565;-63
2022/07/15 07:42:34;;;;;;;;;6.00;4.00;;;;;23.80;36.97;101804.97;4929748;28;45342;-62
2022/07/15 07:45:01;;;;;;;;;6.00;4.67;;;;;23.84;37.12;101784.94;4932124;28;46144;-62
2022/07/15 07:47:26;;;;;;;;;5.00;4.00;;;;;23.79;36.62;101775.88;4930332;28;45533;-62
2022/07/15 07:49:52;;;;;;;;;5.33;4.00;;;;;23.80;35.91;101773.13;4933712;28;45353;-63
2022/07/15 07:52:17;;;;;;;;;7.33;4.00;;;;;23.99;35.91;101795.69;4932652;28;45326;-62
2022/07/15 07:54:43;;;;;;;;;5.33;4.00;;;;;24.07;35.80;101795.56;4934866;28;45381;-62
2022/07/15 07:57:09;;;;;;;;;6.00;4.00;;;;;24.17;35.84;101789.09;4935282;28;45533;-63
2022/07/15 07:59:35;;;;;;;;;6.00;3.00;;;;;24.27;34.83;101789.88;4929640;28;45434;-63
2022/07/15 08:02:01;;;;;;;;;3.67;3.00;;;;;24.17;33.77;101766.31;4929208;28;45952;-60
2022/07/15 08:04:26;;;;;;;;;9.00;4.00;;;;;24.35;33.95;101787.91;4930773;28;45394;-62
2022/07/15 08:06:52;;;;;;;;;4.00;4.00;;;;;24.43;33.38;101783.22;4931446;28;45410;-61
2022/07/15 08:09:17;;;;;;;;;3.67;3.67;;;;;24.52;33.35;101784.00;4931676;28;45390;-61
2022/07/15 08:11:44;;;;;;;;;2.00;2.00;;;;;24.61;32.53;101787.53;4924712;28;45607;-62
2022/07/15 08:14:10;;;;;;;;;6.00;5.00;;;;;24.74;32.21;101782.78;4930781;28;46113;-62
2022/07/15 08:16:35;;;;;;;;;7.67;7.67;;;;;24.80;32.52;101785.44;4926243;28;45303;-61
2022/07/15 08:19:00;;;;;;;;;6.00;4.00;;;;;24.63;32.29;101754.72;4931472;28;45416;-62
2022/07/15 08:21:26;;;;;;;;;4.33;4.33;;;;;24.90;32.05;101788.03;4930032;28;45442;-62
2022/07/15 08:23:51;;;;;;;;;6.33;5.00;;;;;24.96;31.61;101776.97;4932015;28;45582;-60
2022/07/15 08:26:23;;;;;;;;;5.00;4.00;;;;;24.95;32.32;101778.81;4932729;28;45348;-62
2022/07/15 08:28:48;;;;;;;;;3.67;3.67;;;;;25.05;31.77;101785.03;4933220;28;45462;-62
2022/07/15 08:31:14;;;;;;;;;3.00;3.00;;;;;25.08;31.93;101774.03;4934807;28;45424;-61
2022/07/15 08:33:39;;;;;;;;;2.67;1.00;;;;;25.13;31.42;101783.06;4934495;28;46074;-62
2022/07/15 08:36:05;;;;;;;;;5.00;3.00;;;;;25.12;31.54;101792.19;4928948;28;45522;-63
2022/07/15 08:38:30;;;;;;;;;4.67;3.00;;;;;25.00;31.66;101767.81;4926610;28;45408;-62
2022/07/15 08:40:56;;;;;;;;;4.33;3.00;;;;;24.99;31.58;101775.06;4928456;28;45263;-61
2022/07/15 08:43:22;;;;;;;;;3.33;3.33;;;;;25.15;31.48;101785.75;4930137;28;45956;-62
2022/07/15 08:45:48;;;;;;;;;5.67;5.67;;;;;25.23;31.63;101781.06;4928687;28;45407;-63
2022/07/15 08:48:14;;;;;;;;;4.67;4.00;;;;;25.29;31.55;101781.00;4932071;28;45382;-62
2022/07/15 08:50:41;;;;;;;;;4.67;4.00;;;;;25.38;31.28;101780.81;4930406;28;45502;-62
2022/07/15 08:53:07;;;;;;;;;7.00;3.67;;;;;25.38;31.28;101778.06;4933200;28;45711;-62
2022/07/15 08:55:32;;;;;;;;;4.00;4.00;;;;;25.51;30.95;101773.25;4932931;28;45461;-62
2022/07/15 08:57:58;;;;;;;;;5.00;4.67;;;;;25.56;31.33;101765.88;4917771;28;45494;-61
2022/07/15 09:00:30;;;;;;;;;6.67;6.33;;;;;25.56;30.75;101760.41;4933796;28;45479;-61
2022/07/15 09:03:01;;;;;;;;;3.00;1.67;;;;;25.58;30.52;101743.94;4925316;28;46189;-62
2022/07/15 09:05:33;;;;;;;;;4.00;3.00;;;;;25.66;31.12;101754.75;4928758;28;45455;-62
2022/07/15 09:08:05;;;;;;;;;1.00;1.00;;;;;25.74;29.75;101756.38;4927433;28;45306;-61
2022/07/15 09:10:50;;;;;;;;;4.00;4.00;;;;;25.81;29.52;101765.38;4934984;28;45450;-62
2022/07/15 09:13:30;;;;;;;;;3.67;2.00;;;;;25.93;29.45;101758.72;4925447;28;46461;-63
2022/07/15 09:15:57;;;;;;;;;6.67;5.33;;;;;26.02;29.05;101753.09;4927492;28;45479;-62
2022/07/15 09:18:44;;;;;;;;;3.00;3.00;;;;;25.96;28.66;101755.94;4933702;28;45353;-62
2022/07/15 09:21:16;;;;;;;;;6.33;3.33;;;;;26.03;28.15;101759.47;4934658;28;45462;-62
2022/07/15 09:23:41;;;;;;;;;2.67;2.67;;;;;25.97;27.41;101726.72;4932742;28;46275;-62
2022/07/15 09:26:29;;;;;;;;;2.00;2.00;;;;;26.20;27.57;101762.75;4935759;28;45749;-62
2022/07/15 09:28:56;;;;;;;;;2.00;2.00;;;;;26.27;27.28;101767.13;4936547;28;45291;-62
2022/07/15 09:34:14;;;;;;;;;1.67;1.67;;;;;26.45;27.09;101760.31;4934027;28;45954;-62
2022/07/15 09:36:50;;;;;;;;;2.33;2.33;;;;;26.40;26.89;101732.13;4929671;28;45401;-63
2022/07/15 09:39:16;;;;;;;;;12.00;9.00;;;;;26.59;26.54;101751.75;4929698;28;45621;-62
2022/07/15 09:41:44;;;;;;;;;5.33;4.00;;;;;26.70;26.16;101746.06;4931680;28;45488;-63
2022/07/15 09:44:13;;;;;;;;;1.67;1.67;;;;;26.75;25.71;101748.69;4930249;28;46371;-61
2022/07/15 09:46:47;;;;;;;;;25.00;22.00;;;;;26.75;25.42;101751.44;4933940;28;45256;-63
2022/07/15 09:49:34;;;;;;;;;2.00;1.33;;;;;26.65;25.05;101753.50;4932982;28;45619;-62
2022/07/15 09:52:01;;;;;;;;;1.00;1.00;;;;;26.70;25.26;101750.66;4933615;28;45633;-61
2022/07/15 09:54:30;;;;;;;;;4.33;2.00;;;;;26.71;25.78;101746.94;4929561;28;46262;-62
2022/07/15 09:56:58;;;;;;;;;3.67;1.00;;;;;26.69;25.52;101744.22;4930782;28;45552;-62
2022/07/15 09:59:24;;;;;;;;;1.00;1.00;;;;;26.63;25.57;101719.72;4931076;28;45404;-62
2022/07/15 10:01:49;;;;;;;;;1.00;1.00;;;;;26.78;25.27;101743.13;4931162;28;45301;-61
2022/07/15 10:04:18;;;;;;;;;3.33;1.67;;;;;26.75;24.76;101744.09;4927221;28;46929;-62
2022/07/15 10:06:47;;;;;;;;;2.00;2.00;;;;;26.78;24.69;101735.78;4932855;28;45571;-63
2022/07/15 10:09:12;;;;;;;;;9.00;7.00;;;;;26.89;24.52;101740.97;4926930;28;45452;-61
2022/07/15 10:11:46;;;;;;;;;3.00;1.33;;;;;26.91;23.94;101732.72;4931940;28;45509;-63
2022/07/15 10:14:36;;;;;;;;;1.00;1.00;;;;;27.03;24.07;101736.03;4925182;28;46725;-63
2022/07/15 10:17:20;;;;;;;;;1.33;0.00;;;;;27.07;23.84;101739.59;4928399;28;45423;-61
2022/07/15 10:20:04;;;;;;;;;1.67;1.67;;;;;27.15;23.61;101740.28;4930397;28;45610;-62
2022/07/15 10:22:54;;;;;;;;;2.33;2.00;;;;;27.16;23.20;101741.22;4928042;28;45462;-62
2022/07/15 10:25:30;;;;;;;;;1.33;1.33;;;;;27.16;22.96;101738.47;4933767;28;47043;-63
2022/07/15 10:28:07;;;;;;;;;4.33;4.33;;;;;27.19;22.67;101742.03;4934770;28;45504;-61
2022/07/15 10:30:33;;;;;;;;;0.33;0.33;;;;;27.18;23.13;101734.72;4935287;28;45300;-62
2022/07/15 10:33:14;;;;;;;;;1.33;1.33;;;;;27.06;23.32;101723.19;4935683;28;45584;-62
2022/07/15 10:35:48;;;;;;;;;1.00;1.00;;;;;27.03;23.55;101722.31;4931530;28;45428;-61
2022/07/15 10:38:27;;;;;;;;;2.33;2.33;;;;;27.10;23.99;101731.28;4929888;28;45494;-62
2022/07/15 10:41:01;;;;;;;;;3.00;1.67;;;;;27.15;23.54;101725.69;4928555;28;45392;-63
2022/07/15 10:43:46;;;;;;;;;1.00;1.00;;;;;27.23;23.26;101726.38;4930886;28;45393;-63
2022/07/15 10:46:17;;;;;;;;;1.00;1.00;;;;;27.31;23.04;101713.38;4932594;28;46050;-62
2022/07/15 10:48:44;;;;;;;;;1.00;1.00;;;;;27.19;23.53;101717.34;4930603;28;45490;-62
2022/07/15 10:51:10;;;;;;;;;1.00;1.00;;;;;27.19;23.45;101716.41;4934242;28;45524;-62
2022/07/15 10:53:46;;;;;;;;;2.33;1.00;;;;;27.18;23.86;101704.53;4934080;28;45532;-63
2022/07/15 10:56:34;;;;;;;;;2.00;2.00;;;;;27.17;23.07;101697.28;4912889;28;46179;-61
2022/07/15 10:59:11;;;;;;;;;1.00;1.00;;;;;27.21;23.35;101696.22;4935532;28;45325;-61
2022/07/15 11:01:41;;;;;;;;;1.00;1.00;;;;;27.14;23.26;101675.41;4930387;28;45548;-62
2022/07/15 11:04:24;;;;;;;;;4.00;2.00;;;;;27.20;23.12;101680.72;4927202;28;45304;-62
2022/07/15 11:09:50;;;;;;;;;1.33;1.33;;;;;27.27;23.17;101697.91;4932289;28;45487;-64
2022/07/15 11:12:36;;;;;;;;;6.00;2.00;;;;;27.16;23.23;101689.97;4929786;28;45391;-62
2022/07/15 11:15:36;;;;;;;;;1.67;1.67;;;;;27.18;22.94;101689.94;4914315;28;45637;-62
2022/07/15 11:18:03;;;;;;;;;3.67;1.00;;;;;27.19;22.95;101698.13;4871060;28;45600;-61
2022/07/15 11:20:32;;;;;;;;;1.33;1.33;;;;;27.17;22.56;101693.63;4929886;28;45409;-63
2022/07/15 11:22:59;;;;;;;;;1.67;1.67;;;;;27.18;23.25;101695.44;4931536;28;45431;-62
2022/07/15 11:25:26;;;;;;;;;4.00;2.00;;;;;27.17;23.29;101696.34;4931178;28;45610;-62
2022/07/15 11:28:02;;;;;;;;;4.67;2.00;;;;;27.16;23.40;101694.56;4934029;28;46302;-62
2022/07/15 11:30:38;;;;;;;;;1.00;0.00;;;;;26.94;23.24;101659.50;4933773;28;45261;-62
2022/07/15 11:33:14;;;;;;;;;1.00;1.00;;;;;27.02;22.76;101670.25;4935372;28;45408;-62
2022/07/15 11:35:49;;;;;;;;;1.67;1.67;;;;;27.08;22.93;101669.19;4930200;28;45431;-65